SGU Airport (St George Rgnl) Information

FAA: SGU - ICAO: KSGU

SGU Airport Location

State Utah
County Washington
City St George
SGU Airport is 5 miles southeast of St George, UT.
Latitude 37-02-10.9610N
Longitude 113-30-37.0900W
Elevation 2,883ft

KSGU Airport METARs

METAR KSGU 280156Z AUTO 33004KT 10SM CLR 16/05 A3024 RMK AO2 SLP231 T01610050 PNO $
Altimeter 30.24"
Temperature 16.1°C (61.0°F)
Wind 330° at 4KT
Clouds Skies are clear.
Visibility 10.0mi
Time observed: 2021-10-28T01:56:00Z

SGU Airport Details

Status Operational
Activation January 2011
Ownership Public
Usage Public
Chart LAS VEGAS
ATC on-site No
Beacon schedule N/A
Beacon color clear green

SGU Airport Contacts

Owner CITY OF ST GEORGE
Owner address 175 E 200 N, ST GEORGE, UT 84770
Owner phone (435) 627-4000
Manager WARREN R ROGERS
Manager address 246 E HELM AVE, NO 11, SALT LAKE CITY, UT 84115
Manager phone 801-292-5041

SGU Airport (St George Rgnl) Radio Frequencies

SGU (Airport) Radio Frequencies

UNICOM 122.8
Common traffic advisory frequency (CTAF) 122.8